Time;durP1;ratioP1;P1;durP2;ratioP2;P2;SDS_P1;SDS_P2;PMS_P1;PMS_P2;Temp;Humidity;BMP_temperature;BMP_pressure;BME280_temperature;BME280_humidity;BME280_pressure;Samples;Min_cycle;Max_cycle;Signal;HPM_P1;HPM_P2
2023/10/21 00:01:08;;;;;;;3.33;1.10;;;;;;;;;;5135489;27;43137;-59
2023/10/21 00:03:35;;;;;;;2.03;1.10;;;;;;;;;;5164514;27;40384;-59
2023/10/21 00:06:04;;;;;;;1.48;1.00;;;;;;;;;;5147688;27;41236;-59
2023/10/21 00:08:32;;;;;;;3.53;1.00;;;;;;;;;;5134464;27;42170;-59
2023/10/21 00:11:03;;;;;;;1.98;0.90;;;;;;;;;;5168220;27;41279;-59
2023/10/21 00:13:33;;;;;;;1.75;1.10;;;;;;;;;;5168558;27;41565;-60
2023/10/21 00:16:00;;;;;;;2.45;1.13;;;;;;;;;;5171510;27;41326;-59
2023/10/21 00:18:28;;;;;;;1.63;1.10;;;;;;;;;;5157526;27;41618;-59
2023/10/21 00:20:57;;;;;;;2.42;1.05;;;;;;;;;;5151563;27;41672;-59
2023/10/21 00:23:25;;;;;;;2.40;1.10;;;;;;;;;;5165359;27;41375;-59
2023/10/21 00:25:53;;;;;;;1.92;0.93;;;;;;;;;;5134461;27;41407;-59
2023/10/21 00:28:20;;;;;;;1.30;1.10;;;;;;;;;;5150739;27;43128;-59
2023/10/21 00:30:50;;;;;;;2.40;1.30;;;;;;;;;;5133833;27;39789;-59
2023/10/21 00:33:18;;;;;;;1.83;0.90;;;;;;;;;;5146841;27;41346;-60
2023/10/21 00:35:46;;;;;;;1.67;0.90;;;;;;;;;;5145157;27;42717;-61
2023/10/21 00:38:14;;;;;;;2.45;1.02;;;;;;;;;;5131576;27;41592;-60
2023/10/21 00:40:49;;;;;;;1.30;1.00;;;;;;;;;;5129177;27;43248;-61
2023/10/21 00:43:36;;;;;;;2.17;1.40;;;;;;;;;;5133382;27;40695;-61
2023/10/21 00:46:07;;;;;;;2.35;1.30;;;;;;;;;;5136348;27;40065;-60
2023/10/21 00:48:35;;;;;;;2.08;1.00;;;;;;;;;;5150932;27;42617;-61
2023/10/21 00:51:03;;;;;;;1.15;1.00;;;;;;;;;;5150824;27;40139;-60
2023/10/21 00:53:32;;;;;;;1.92;1.20;;;;;;;;;;5137548;27;41423;-60
2023/10/21 00:56:00;;;;;;;1.92;0.80;;;;;;;;;;5131004;27;41988;-61
2023/10/21 00:58:30;;;;;;;1.27;0.80;;;;;;;;;;5149851;27;40262;-60
2023/10/21 01:00:59;;;;;;;1.50;1.15;;;;;;;;;;5150050;27;40468;-61
2023/10/21 01:03:28;;;;;;;1.30;1.00;;;;;;;;;;5147172;27;40403;-60
2023/10/21 01:05:56;;;;;;;1.10;0.98;;;;;;;;;;5138303;27;41581;-60
2023/10/21 01:08:24;;;;;;;2.65;1.13;;;;;;;;;;5149759;27;42174;-60
2023/10/21 01:10:52;;;;;;;2.58;1.02;;;;;;;;;;5136484;27;40459;-60
2023/10/21 01:13:20;;;;;;;1.60;1.10;;;;;;;;;;5139639;27;41755;-60
2023/10/21 01:15:48;;;;;;;2.15;1.40;;;;;;;;;;5137042;27;40684;-60
2023/10/21 01:18:16;;;;;;;2.60;1.27;;;;;;;;;;5137695;27;40226;-60
2023/10/21 01:20:45;;;;;;;1.98;1.20;;;;;;;;;;5136681;27;41607;-60
2023/10/21 01:23:15;;;;;;;1.52;1.15;;;;;;;;;;5141890;27;40343;-60
2023/10/21 01:25:43;;;;;;;3.15;1.17;;;;;;;;;;5148930;27;41457;-60
2023/10/21 01:28:12;;;;;;;1.25;1.10;;;;;;;;;;5150400;27;43368;-60
2023/10/21 01:30:40;;;;;;;2.13;1.27;;;;;;;;;;5150865;27;42013;-60
2023/10/21 01:33:07;;;;;;;3.28;1.50;;;;;;;;;;5133705;27;40328;-60
2023/10/21 01:35:36;;;;;;;1.80;1.35;;;;;;;;;;5150963;27;41899;-61
2023/10/21 01:38:04;;;;;;;1.25;1.05;;;;;;;;;;5165772;27;39235;-60
2023/10/21 01:40:33;;;;;;;3.35;1.35;;;;;;;;;;5150547;27;42177;-60
2023/10/21 01:43:01;;;;;;;1.40;1.30;;;;;;;;;;5150474;27;40716;-61
2023/10/21 01:45:29;;;;;;;1.63;1.30;;;;;;;;;;5147641;27;41105;-60
2023/10/21 01:47:57;;;;;;;1.73;1.17;;;;;;;;;;5144767;27;41351;-61
2023/10/21 01:50:28;;;;;;;2.50;1.25;;;;;;;;;;5150544;27;40457;-61
2023/10/21 01:52:56;;;;;;;1.85;1.40;;;;;;;;;;5146133;27;42209;-60
2023/10/21 01:55:27;;;;;;;2.28;1.15;;;;;;;;;;5145299;27;43141;-60
2023/10/21 01:57:57;;;;;;;2.50;1.38;;;;;;;;;;5147783;27;38989;-60
2023/10/21 02:00:25;;;;;;;3.55;1.65;;;;;;;;;;5138972;27;41542;-61
2023/10/21 02:02:54;;;;;;;1.70;1.05;;;;;;;;;;5150778;27;42827;-60
2023/10/21 02:05:22;;;;;;;1.63;1.25;;;;;;;;;;5150289;27;41693;-61
2023/10/21 02:07:50;;;;;;;2.13;1.45;;;;;;;;;;5149471;27;41752;-60
2023/10/21 02:10:18;;;;;;;2.42;1.50;;;;;;;;;;5149340;27;41822;-60
2023/10/21 02:12:46;;;;;;;1.45;1.23;;;;;;;;;;5148474;27;41254;-61
2023/10/21 02:15:16;;;;;;;2.40;1.20;;;;;;;;;;5149222;27;41670;-61
2023/10/21 02:17:44;;;;;;;1.45;1.10;;;;;;;;;;5148028;27;39083;-60
2023/10/21 02:20:13;;;;;;;1.70;1.23;;;;;;;;;;5147916;27;40554;-61
2023/10/21 02:22:41;;;;;;;1.70;1.40;;;;;;;;;;5146934;27;41381;-60
2023/10/21 02:25:11;;;;;;;2.10;1.33;;;;;;;;;;5150444;27;40373;-60
2023/10/21 02:27:42;;;;;;;2.65;1.30;;;;;;;;;;5147813;27;42210;-60
2023/10/21 02:30:10;;;;;;;1.67;1.27;;;;;;;;;;5148740;27;40014;-60
2023/10/21 02:32:42;;;;;;;2.70;1.30;;;;;;;;;;5145785;27;42754;-60
2023/10/21 02:35:10;;;;;;;2.83;1.70;;;;;;;;;;5137614;27;40732;-60
2023/10/21 02:37:38;;;;;;;2.72;1.73;;;;;;;;;;5147054;27;39462;-60
2023/10/21 02:40:07;;;;;;;1.63;1.48;;;;;;;;;;5148195;27;40318;-60
2023/10/21 02:42:36;;;;;;;2.38;1.48;;;;;;;;;;5146817;27;43127;-60
2023/10/21 02:45:04;;;;;;;2.63;1.65;;;;;;;;;;5135405;27;39920;-60
2023/10/21 02:47:32;;;;;;;2.22;1.50;;;;;;;;;;5151162;27;40072;-61
2023/10/21 02:50:01;;;;;;;1.90;1.30;;;;;;;;;;5148951;27;40533;-61
2023/10/21 02:52:29;;;;;;;1.85;1.63;;;;;;;;;;5136465;27;42607;-60
2023/10/21 02:54:57;;;;;;;2.28;1.60;;;;;;;;;;5158801;27;41494;-60
2023/10/21 02:57:25;;;;;;;1.48;1.13;;;;;;;;;;5140309;27;40215;-61
2023/10/21 02:59:53;;;;;;;2.67;1.83;;;;;;;;;;5148947;27;41258;-61
2023/10/21 03:02:21;;;;;;;1.92;1.33;;;;;;;;;;5149311;27;42096;-60
2023/10/21 03:04:49;;;;;;;1.80;1.40;;;;;;;;;;5132888;27;41317;-61
2023/10/21 03:07:19;;;;;;;2.10;1.23;;;;;;;;;;5147588;27;40629;-60
2023/10/21 03:09:47;;;;;;;4.20;1.80;;;;;;;;;;5148203;27;42249;-60
2023/10/21 03:12:15;;;;;;;1.65;1.40;;;;;;;;;;5147407;27;40084;-60
2023/10/21 03:14:43;;;;;;;2.80;1.40;;;;;;;;;;5148997;27;43185;-60
2023/10/21 03:17:11;;;;;;;2.58;1.50;;;;;;;;;;5148795;27;43007;-60
2023/10/21 03:19:40;;;;;;;2.72;1.20;;;;;;;;;;5152903;27;20267;-61
2023/10/21 03:22:08;;;;;;;1.98;1.20;;;;;;;;;;5145456;27;40766;-60
2023/10/21 03:24:37;;;;;;;3.78;1.13;;;;;;;;;;5148464;27;40269;-60
2023/10/21 03:27:05;;;;;;;2.00;1.50;;;;;;;;;;5132266;27;41131;-60
2023/10/21 03:29:33;;;;;;;2.25;1.40;;;;;;;;;;5148977;27;42145;-60
2023/10/21 03:32:02;;;;;;;2.15;1.60;;;;;;;;;;5147945;27;40357;-60
2023/10/21 03:34:30;;;;;;;2.28;1.42;;;;;;;;;;5148508;27;41746;-60
2023/10/21 03:36:58;;;;;;;2.05;1.30;;;;;;;;;;5134640;27;39572;-60
2023/10/21 03:39:26;;;;;;;2.00;1.40;;;;;;;;;;5131964;27;41795;-60
2023/10/21 03:41:55;;;;;;;1.33;1.10;;;;;;;;;;5146132;27;42552;-60
2023/10/21 03:44:26;;;;;;;2.10;1.40;;;;;;;;;;5147722;27;40607;-60
2023/10/21 03:46:54;;;;;;;2.17;1.30;;;;;;;;;;5136973;27;40874;-60
2023/10/21 03:49:22;;;;;;;1.30;1.05;;;;;;;;;;5140435;27;41276;-60
2023/10/21 03:51:50;;;;;;;1.58;1.25;;;;;;;;;;5148807;27;41232;-60
2023/10/21 03:54:18;;;;;;;1.52;1.20;;;;;;;;;;5147482;27;42037;-60
2023/10/21 03:56:46;;;;;;;2.00;1.27;;;;;;;;;;5149955;27;41300;-60
2023/10/21 03:59:16;;;;;;;1.95;1.40;;;;;;;;;;5161168;27;41846;-59
2023/10/21 04:01:45;;;;;;;2.20;1.45;;;;;;;;;;5149250;27;41725;-59
2023/10/21 04:04:13;;;;;;;2.13;1.50;;;;;;;;;;5136300;27;40350;-59
2023/10/21 04:06:41;;;;;;;2.30;1.40;;;;;;;;;;5126124;27;41121;-59
2023/10/21 04:09:09;;;;;;;1.65;1.10;;;;;;;;;;5137584;27;42074;-60
2023/10/21 04:11:37;;;;;;;1.63;1.23;;;;;;;;;;5148115;27;41401;-61
2023/10/21 04:14:05;;;;;;;1.75;1.20;;;;;;;;;;5147997;27;42599;-60
2023/10/21 04:16:35;;;;;;;1.65;1.42;;;;;;;;;;5147414;27;40831;-60
2023/10/21 04:19:02;;;;;;;1.73;1.33;;;;;;;;;;5140878;27;42456;-60
2023/10/21 04:21:30;;;;;;;1.45;0.93;;;;;;;;;;5140760;27;43115;-60
2023/10/21 04:23:58;;;;;;;1.75;1.30;;;;;;;;;;5139656;27;41857;-61
2023/10/21 04:26:26;;;;;;;1.27;1.02;;;;;;;;;;5153100;27;42930;-60
2023/10/21 04:28:54;;;;;;;1.63;1.27;;;;;;;;;;5146456;27;42053;-61
2023/10/21 04:31:22;;;;;;;1.48;0.95;;;;;;;;;;5147547;27;40195;-60
2023/10/21 04:33:52;;;;;;;1.60;1.23;;;;;;;;;;5147028;27;41649;-60
2023/10/21 04:36:20;;;;;;;1.23;0.93;;;;;;;;;;5147145;27;41981;-60
2023/10/21 04:38:48;;;;;;;1.75;1.33;;;;;;;;;;5147394;27;42288;-61
2023/10/21 04:41:16;;;;;;;2.33;1.20;;;;;;;;;;5146578;27;43101;-60
2023/10/21 04:43:44;;;;;;;3.13;1.40;;;;;;;;;;5146843;27;40381;-61
2023/10/21 04:46:12;;;;;;;1.50;1.17;;;;;;;;;;5135747;27;41238;-61
2023/10/21 04:48:40;;;;;;;1.63;1.27;;;;;;;;;;5136161;27;42075;-60
2023/10/21 04:51:09;;;;;;;1.20;1.00;;;;;;;;;;5161943;27;40810;-60
2023/10/21 04:53:38;;;;;;;1.13;0.98;;;;;;;;;;5147559;27;41836;-60
2023/10/21 04:56:06;;;;;;;1.63;1.20;;;;;;;;;;5146246;27;41710;-60
2023/10/21 04:58:34;;;;;;;2.83;1.08;;;;;;;;;;5152562;27;40295;-60
2023/10/21 05:01:02;;;;;;;2.03;1.40;;;;;;;;;;5149753;27;42347;-60
2023/10/21 05:03:30;;;;;;;2.67;1.38;;;;;;;;;;5144177;27;40299;-61
2023/10/21 05:05:59;;;;;;;1.55;0.90;;;;;;;;;;5143236;27;41611;-61
2023/10/21 05:08:28;;;;;;;2.72;1.17;;;;;;;;;;5136058;27;42151;-60
2023/10/21 05:10:56;;;;;;;1.83;1.05;;;;;;;;;;5149227;27;40008;-60
2023/10/21 05:13:24;;;;;;;1.20;1.10;;;;;;;;;;5162253;27;42632;-60
2023/10/21 05:15:52;;;;;;;1.20;1.10;;;;;;;;;;5139036;27;42436;-60
2023/10/21 05:18:20;;;;;;;1.38;1.02;;;;;;;;;;5166632;27;41764;-60
2023/10/21 05:20:48;;;;;;;1.05;0.85;;;;;;;;;;5160236;27;41103;-60
2023/10/21 05:23:16;;;;;;;1.55;1.10;;;;;;;;;;5145785;27;40042;-60
2023/10/21 05:25:46;;;;;;;1.77;1.00;;;;;;;;;;5149894;27;41275;-60
2023/10/21 05:28:14;;;;;;;2.47;1.30;;;;;;;;;;5151067;27;42397;-61
2023/10/21 05:30:43;;;;;;;1.67;1.00;;;;;;;;;;5149163;27;40593;-61
2023/10/21 05:33:11;;;;;;;1.05;0.85;;;;;;;;;;5150183;27;41833;-62
2023/10/21 05:35:39;;;;;;;1.38;1.00;;;;;;;;;;5148669;27;42733;-61
2023/10/21 05:38:07;;;;;;;1.60;1.10;;;;;;;;;;5149588;27;41081;-61
2023/10/21 05:40:35;;;;;;;1.45;1.20;;;;;;;;;;5150193;27;41911;-62
2023/10/21 05:43:05;;;;;;;1.20;0.98;;;;;;;;;;5150392;27;33043;-61
2023/10/21 05:45:32;;;;;;;2.38;1.10;;;;;;;;;;5145491;27;42639;-61
2023/10/21 05:48:00;;;;;;;0.90;0.80;;;;;;;;;;5146051;27;43099;-62
2023/10/21 05:50:29;;;;;;;1.42;1.00;;;;;;;;;;5154033;27;41293;-62
2023/10/21 05:52:58;;;;;;;2.97;1.08;;;;;;;;;;5144951;27;41813;-61
2023/10/21 05:55:26;;;;;;;0.80;0.80;;;;;;;;;;5157130;27;42086;-61
2023/10/21 05:57:54;;;;;;;1.27;0.80;;;;;;;;;;5143916;27;39993;-61
2023/10/21 06:00:23;;;;;;;1.88;0.82;;;;;;;;;;5143090;27;42630;-61
2023/10/21 06:02:51;;;;;;;1.25;1.08;;;;;;;;;;5144819;27;41944;-61
2023/10/21 06:05:19;;;;;;;1.45;0.90;;;;;;;;;;5135338;27;41368;-61
2023/10/21 06:07:47;;;;;;;1.00;0.80;;;;;;;;;;5140649;27;42013;-61
2023/10/21 06:10:16;;;;;;;1.25;0.93;;;;;;;;;;5147133;27;41242;-61
2023/10/21 06:12:44;;;;;;;1.60;0.90;;;;;;;;;;5147511;27;42069;-61
2023/10/21 06:15:16;;;;;;;1.15;0.80;;;;;;;;;;5141059;27;42529;-61
2023/10/21 06:17:46;;;;;;;1.05;0.82;;;;;;;;;;5133165;27;40959;-61
2023/10/21 06:20:14;;;;;;;1.38;1.10;;;;;;;;;;5139056;27;41263;-61
2023/10/21 06:22:42;;;;;;;0.85;0.80;;;;;;;;;;5136515;27;41530;-62
2023/10/21 06:25:11;;;;;;;1.05;0.82;;;;;;;;;;5142544;27;41090;-61
2023/10/21 06:27:38;;;;;;;2.22;0.90;;;;;;;;;;5141555;27;42088;-62
2023/10/21 06:30:07;;;;;;;1.27;1.00;;;;;;;;;;5149459;27;41023;-61
2023/10/21 06:32:37;;;;;;;0.90;0.85;;;;;;;;;;5143951;27;42605;-62
2023/10/21 06:35:07;;;;;;;1.15;0.82;;;;;;;;;;5165636;27;41607;-61
2023/10/21 06:37:35;;;;;;;1.17;0.75;;;;;;;;;;5157469;27;41174;-61
2023/10/21 06:40:04;;;;;;;1.30;0.80;;;;;;;;;;5131286;27;41898;-61
2023/10/21 06:42:32;;;;;;;2.08;0.95;;;;;;;;;;5155390;27;41631;-62
2023/10/21 06:45:01;;;;;;;2.63;0.82;;;;;;;;;;5143208;27;40153;-62
2023/10/21 06:47:29;;;;;;;2.97;0.90;;;;;;;;;;5141289;27;41272;-61
2023/10/21 06:49:56;;;;;;;1.98;0.85;;;;;;;;;;5131474;27;41879;-63
2023/10/21 06:52:26;;;;;;;1.73;0.95;;;;;;;;;;5133031;27;41511;-63
2023/10/21 06:54:54;;;;;;;2.03;1.30;;;;;;;;;;5139442;27;41999;-62
2023/10/21 06:57:22;;;;;;;2.30;1.33;;;;;;;;;;5149165;27;40850;-62
2023/10/21 06:59:52;;;;;;;2.17;1.00;;;;;;;;;;5151335;27;42159;-62
2023/10/21 07:02:20;;;;;;;3.25;1.30;;;;;;;;;;5146932;27;42545;-62
2023/10/21 07:04:50;;;;;;;0.95;0.80;;;;;;;;;;5151113;27;40374;-62
2023/10/21 07:07:17;;;;;;;1.10;0.88;;;;;;;;;;5137116;27;41740;-62
2023/10/21 07:09:47;;;;;;;2.50;0.90;;;;;;;;;;5152880;27;41475;-62
2023/10/21 07:12:15;;;;;;;3.88;1.00;;;;;;;;;;5132415;27;42552;-62
2023/10/21 07:14:43;;;;;;;1.58;0.95;;;;;;;;;;5129713;27;42146;-62
2023/10/21 07:17:11;;;;;;;6.63;1.00;;;;;;;;;;5145101;27;41391;-62
2023/10/21 07:19:39;;;;;;;1.25;0.80;;;;;;;;;;5150110;27;41339;-62
2023/10/21 07:22:07;;;;;;;1.40;0.90;;;;;;;;;;5145936;27;43347;-62
2023/10/21 07:24:35;;;;;;;4.72;1.00;;;;;;;;;;5149547;27;40456;-62
2023/10/21 07:27:05;;;;;;;1.05;0.75;;;;;;;;;;5142776;27;41563;-62
2023/10/21 07:29:33;;;;;;;1.60;1.00;;;;;;;;;;5148808;27;42646;-62
2023/10/21 07:32:01;;;;;;;2.83;0.95;;;;;;;;;;5135035;27;38623;-62
2023/10/21 07:34:29;;;;;;;2.58;0.82;;;;;;;;;;5146817;27;42115;-62
2023/10/21 07:36:57;;;;;;;6.63;0.90;;;;;;;;;;5136699;27;39516;-62
2023/10/21 07:39:26;;;;;;;3.70;1.40;;;;;;;;;;5140764;27;42603;-62
2023/10/21 07:41:54;;;;;;;2.92;0.85;;;;;;;;;;5151263;27;42854;-62
2023/10/21 07:44:23;;;;;;;3.70;1.00;;;;;;;;;;5141973;27;40573;-63
2023/10/21 07:46:51;;;;;;;3.00;0.88;;;;;;;;;;5139277;27;41588;-62
2023/10/21 07:49:19;;;;;;;4.10;1.13;;;;;;;;;;5142967;27;41987;-62
2023/10/21 07:51:48;;;;;;;2.10;1.10;;;;;;;;;;5141124;27;40147;-62
2023/10/21 07:54:16;;;;;;;2.58;0.90;;;;;;;;;;5141760;27;41939;-62
2023/10/21 07:56:45;;;;;;;2.92;1.10;;;;;;;;;;5153032;27;40694;-62
2023/10/21 07:59:16;;;;;;;3.00;1.08;;;;;;;;;;5148749;27;41784;-62
2023/10/21 08:01:45;;;;;;;3.08;0.88;;;;;;;;;;5162702;27;41941;-62
2023/10/21 08:04:13;;;;;;;1.70;0.73;;;;;;;;;;5159801;27;41384;-62
2023/10/21 08:06:44;;;;;;;1.13;0.70;;;;;;;;;;5151788;27;42491;-62
2023/10/21 08:09:14;;;;;;;1.90;0.80;;;;;;;;;;5156057;27;42139;-61
2023/10/21 08:11:43;;;;;;;2.42;1.00;;;;;;;;;;5138300;27;41045;-62
2023/10/21 08:14:11;;;;;;;2.67;1.02;;;;;;;;;;5140803;27;41559;-61
2023/10/21 08:16:39;;;;;;;2.42;0.98;;;;;;;;;;5156266;27;40401;-61
2023/10/21 08:19:08;;;;;;;1.85;0.90;;;;;;;;;;5151756;27;42249;-62
2023/10/21 08:21:36;;;;;;;3.13;0.75;;;;;;;;;;5125333;27;42092;-60
2023/10/21 08:24:05;;;;;;;3.03;1.00;;;;;;;;;;5153339;27;40750;-61
2023/10/21 08:26:33;;;;;;;3.60;0.73;;;;;;;;;;5152925;27;42652;-61
2023/10/21 08:29:02;;;;;;;2.08;0.93;;;;;;;;;;5145764;27;41943;-61
2023/10/21 08:31:30;;;;;;;5.85;1.20;;;;;;;;;;5146223;27;42205;-61
2023/10/21 08:33:58;;;;;;;2.88;1.17;;;;;;;;;;5141062;27;41511;-61
2023/10/21 08:36:27;;;;;;;4.63;1.10;;;;;;;;;;5146601;27;42262;-61
2023/10/21 08:38:55;;;;;;;3.45;0.93;;;;;;;;;;5139853;27;41630;-61
2023/10/21 08:41:23;;;;;;;3.53;0.70;;;;;;;;;;5149963;27;41936;-61
2023/10/21 08:43:51;;;;;;;3.08;1.05;;;;;;;;;;5138465;27;40129;-65
2023/10/21 08:46:19;;;;;;;2.05;0.82;;;;;;;;;;5141118;27;42066;-65
2023/10/21 08:48:47;;;;;;;4.30;0.85;;;;;;;;;;5144769;27;42510;-64
2023/10/21 08:51:17;;;;;;;3.85;0.88;;;;;;;;;;5140228;27;40331;-64
2023/10/21 08:53:47;;;;;;;1.63;0.70;;;;;;;;;;5144818;27;41040;-68
2023/10/21 08:56:15;;;;;;;1.98;1.10;;;;;;;;;;5143302;27;43102;-66
2023/10/21 08:58:43;;;;;;;5.85;0.70;;;;;;;;;;5133894;27;41361;-68
2023/10/21 09:01:11;;;;;;;4.50;1.10;;;;;;;;;;5133771;27;42124;-68
2023/10/21 09:03:39;;;;;;;3.53;1.00;;;;;;;;;;5136786;27;41354;-68
2023/10/21 09:06:10;;;;;;;6.07;0.90;;;;;;;;;;5150618;27;41602;-65
2023/10/21 09:08:39;;;;;;;3.88;0.90;;;;;;;;;;5136459;27;42386;-68
2023/10/21 09:11:08;;;;;;;4.32;0.80;;;;;;;;;;5141329;27;41068;-68
2023/10/21 09:13:36;;;;;;;3.47;1.17;;;;;;;;;;5134388;27;42577;-67
2023/10/21 09:16:05;;;;;;;5.22;1.10;;;;;;;;;;5148380;27;42059;-67
2023/10/21 09:18:35;;;;;;;1.48;0.80;;;;;;;;;;5144783;27;40179;-67
2023/10/21 09:21:03;;;;;;;1.17;0.73;;;;;;;;;;5144107;27;41718;-67
2023/10/21 09:23:31;;;;;;;4.45;0.80;;;;;;;;;;5144394;27;40485;-67
2023/10/21 09:26:00;;;;;;;0.63;0.50;;;;;;;;;;5131457;27;41286;-68
2023/10/21 09:28:30;;;;;;;8.68;0.82;;;;;;;;;;5142330;27;42021;-67
2023/10/21 09:30:59;;;;;;;3.17;0.75;;;;;;;;;;5134603;27;39788;-68
2023/10/21 09:33:27;;;;;;;7.15;0.73;;;;;;;;;;5143342;27;41792;-64
2023/10/21 09:36:01;;;;;;;4.05;0.70;;;;;;;;;;5140538;27;41568;-65
2023/10/21 09:38:50;;;;;;;5.20;0.70;;;;;;;;;;5134700;27;40337;-62
2023/10/21 09:41:18;;;;;;;0.90;0.52;;;;;;;;;;5136475;27;41671;-61
2023/10/21 09:43:51;;;;;;;4.88;0.80;;;;;;;;;;5129145;27;42534;-62
2023/10/21 09:46:19;;;;;;;2.05;0.60;;;;;;;;;;5144029;27;41742;-63
2023/10/21 09:48:47;;;;;;;3.85;0.80;;;;;;;;;;5131114;27;41768;-65
2023/10/21 09:51:15;;;;;;;5.13;0.80;;;;;;;;;;5137531;27;40749;-64
2023/10/21 09:53:45;;;;;;;3.58;1.13;;;;;;;;;;5145980;27;42646;-64
2023/10/21 09:56:15;;;;;;;3.78;0.80;;;;;;;;;;5142031;27;42026;-64
2023/10/21 09:58:43;;;;;;;2.28;0.63;;;;;;;;;;5149294;27;41134;-67
2023/10/21 10:01:12;;;;;;;2.88;0.52;;;;;;;;;;5138822;27;41011;-65
2023/10/21 10:03:40;;;;;;;9.23;1.00;;;;;;;;;;5151473;27;40880;-67
2023/10/21 10:06:08;;;;;;;9.75;0.85;;;;;;;;;;5144502;27;41754;-68
2023/10/21 10:08:36;;;;;;;13.80;0.73;;;;;;;;;;5141455;27;43172;-67
2023/10/21 10:11:08;;;;;;;4.90;0.70;;;;;;;;;;5134431;27;41086;-67
2023/10/21 10:13:36;;;;;;;1.70;1.08;;;;;;;;;;5145385;27;40565;-71
2023/10/21 10:18:58;;;;;;;5.45;1.33;;;;;;;;;;5162991;27;20389;-62
2023/10/21 10:21:26;;;;;;;3.90;0.73;;;;;;;;;;5138201;27;42870;-63
2023/10/21 10:23:58;;;;;;;3.95;0.90;;;;;;;;;;5142278;27;40092;-63
2023/10/21 10:26:43;;;;;;;3.13;0.52;;;;;;;;;;5144169;27;42638;-62
2023/10/21 10:29:19;;;;;;;1.88;0.70;;;;;;;;;;5143069;27;42104;-62
2023/10/21 10:31:47;;;;;;;4.53;0.77;;;;;;;;;;5143199;27;41329;-63
2023/10/21 10:34:19;;;;;;;4.15;0.98;;;;;;;;;;5141616;27;41346;-63
2023/10/21 10:36:47;;;;;;;4.60;0.82;;;;;;;;;;5143870;27;42411;-63
2023/10/21 10:39:30;;;;;;;5.15;0.60;;;;;;;;;;5144300;27;40948;-62
2023/10/21 10:41:58;;;;;;;1.65;0.40;;;;;;;;;;5142679;27;42695;-63
2023/10/21 10:44:27;;;;;;;1.85;0.60;;;;;;;;;;5142757;27;40141;-62
2023/10/21 10:46:55;;;;;;;4.18;0.60;;;;;;;;;;5129610;27;42202;-62
2023/10/21 10:49:24;;;;;;;2.78;0.70;;;;;;;;;;5139076;27;42352;-62
2023/10/21 10:51:52;;;;;;;3.03;0.80;;;;;;;;;;5142687;27;40212;-62
2023/10/21 10:54:20;;;;;;;3.03;0.60;;;;;;;;;;5143464;27;41379;-62
2023/10/21 10:56:50;;;;;;;1.15;0.63;;;;;;;;;;5128464;27;42095;-62
2023/10/21 10:59:18;;;;;;;5.28;0.98;;;;;;;;;;5137027;27;40287;-62
2023/10/21 11:01:56;;;;;;;4.50;0.77;;;;;;;;;;5141734;27;42248;-62
2023/10/21 11:04:25;;;;;;;18.27;2.92;;;;;;;;;;5142227;27;40392;-62
2023/10/21 11:06:55;;;;;;;7.65;2.20;;;;;;;;;;5135465;27;41282;-62
2023/10/21 11:09:30;;;;;;;10.68;1.95;;;;;;;;;;5133486;27;42275;-63
2023/10/21 11:11:58;;;;;;;13.30;1.98;;;;;;;;;;5142688;27;40792;-62
2023/10/21 11:14:38;;;;;;;7.72;1.95;;;;;;;;;;5141778;27;41607;-62
2023/10/21 11:17:06;;;;;;;10.38;2.38;;;;;;;;;;5142341;27;43298;-64
2023/10/21 11:19:35;;;;;;;7.65;2.28;;;;;;;;;;5141798;27;40377;-63
2023/10/21 11:22:08;;;;;;;17.45;2.60;;;;;;;;;;5139172;27;42536;-62
2023/10/21 11:24:36;;;;;;;5.75;1.90;;;;;;;;;;5132624;27;42258;-62
2023/10/21 11:27:05;;;;;;;8.57;1.58;;;;;;;;;;5143027;27;41950;-62
2023/10/21 11:29:34;;;;;;;17.90;2.35;;;;;;;;;;5132701;27;42171;-61
2023/10/21 11:32:02;;;;;;;9.93;2.05;;;;;;;;;;5128217;27;40281;-63
2023/10/21 11:34:31;;;;;;;6.82;1.70;;;;;;;;;;5128720;27;42047;-63
2023/10/21 11:37:00;;;;;;;4.65;1.25;;;;;;;;;;5125524;27;42016;-62
2023/10/21 11:39:28;;;;;;;9.90;1.92;;;;;;;;;;5129528;27;40346;-64
2023/10/21 11:41:56;;;;;;;3.47;1.00;;;;;;;;;;5128310;27;40953;-63
2023/10/21 11:44:27;;;;;;;5.65;1.65;;;;;;;;;;5128561;27;41911;-62
2023/10/21 11:46:57;;;;;;;7.05;1.38;;;;;;;;;;5123398;27;41324;-62
2023/10/21 11:49:26;;;;;;;7.43;1.70;;;;;;;;;;5127602;27;43104;-62
2023/10/21 11:51:55;;;;;;;6.75;1.38;;;;;;;;;;5124965;27;41039;-62
2023/10/21 11:54:32;;;;;;;5.40;1.17;;;;;;;;;;5127546;27;41491;-62
2023/10/21 12:11:12;;;;;;;5.60;1.42;;;;;;;;;;5127295;27;41223;-62
2023/10/21 12:13:51;;;;;;;5.30;1.50;;;;;;;;;;5127671;27;40876;-66
2023/10/21 12:16:37;;;;;;;4.50;1.23;;;;;;;;;;5128154;27;41404;-65
2023/10/21 12:19:40;;;;;;;5.88;1.33;;;;;;;;;;5128142;27;43140;-64
2023/10/21 12:22:30;;;;;;;10.57;1.40;;;;;;;;;;5121409;27;40280;-65
2023/10/21 12:25:41;;;;;;;5.50;1.30;;;;;;;;;;5110997;27;41233;-62
2023/10/21 12:34:19;;;;;;;7.78;1.73;;;;;;;;;;5110242;27;41637;-62
2023/10/21 12:37:18;;;;;;;25.20;2.22;;;;;;;;;;5117668;27;33782;-62
2023/10/21 12:39:48;;;;;;;37.22;3.22;;;;;;;;;;5123863;27;42084;-62
2023/10/21 12:42:21;;;;;;;30.95;3.20;;;;;;;;;;5121324;27;42150;-62
2023/10/21 12:44:55;;;;;;;22.40;2.58;;;;;;;;;;5114190;27;40480;-63
2023/10/21 12:47:22;;;;;;;29.48;2.63;;;;;;;;;;5125637;27;41539;-64
2023/10/21 12:49:50;;;;;;;23.30;2.17;;;;;;;;;;5122818;27;42766;-63
2023/10/21 12:52:18;;;;;;;14.88;2.38;;;;;;;;;;5120062;27;40145;-60
2023/10/21 12:54:46;;;;;;;17.10;2.20;;;;;;;;;;5112702;27;41747;-60
2023/10/21 12:57:15;;;;;;;18.35;2.10;;;;;;;;;;5119900;27;42219;-60
2023/10/21 12:59:42;;;;;;;13.50;1.80;;;;;;;;;;5127072;27;41973;-60
2023/10/21 13:02:12;;;;;;;17.35;2.13;;;;;;;;;;5128337;27;43040;-60
2023/10/21 13:04:40;;;;;;;15.75;1.95;;;;;;;;;;5113165;27;40966;-60
2023/10/21 13:07:09;;;;;;;9.35;1.88;;;;;;;;;;5128263;27;41436;-60
2023/10/21 13:09:40;;;;;;;11.10;1.70;;;;;;;;;;5127742;27;42915;-60
2023/10/21 13:12:14;;;;;;;8.65;2.13;;;;;;;;;;5127179;27;39743;-61
2023/10/21 13:14:42;;;;;;;10.85;1.73;;;;;;;;;;5125505;27;41639;-60
2023/10/21 13:17:12;;;;;;;9.88;1.55;;;;;;;;;;5127944;27;41748;-64
2023/10/21 13:19:40;;;;;;;19.50;1.90;;;;;;;;;;5128626;27;40491;-64
2023/10/21 13:22:08;;;;;;;13.48;1.58;;;;;;;;;;5126869;27;42497;-66
2023/10/21 13:24:36;;;;;;;8.60;1.40;;;;;;;;;;5130252;27;41274;-66
2023/10/21 13:27:05;;;;;;;12.93;1.83;;;;;;;;;;5129214;27;41375;-65
2023/10/21 13:29:33;;;;;;;5.93;1.33;;;;;;;;;;5127290;27;42128;-66
2023/10/21 13:32:01;;;;;;;11.18;1.40;;;;;;;;;;5128305;27;40266;-66
2023/10/21 13:34:31;;;;;;;11.05;1.67;;;;;;;;;;5127631;27;41580;-66
2023/10/21 13:36:58;;;;;;;11.57;1.48;;;;;;;;;;5114289;27;41957;-66
2023/10/21 13:39:28;;;;;;;13.43;1.65;;;;;;;;;;5124807;27;39831;-60
2023/10/21 13:41:56;;;;;;;14.07;2.22;;;;;;;;;;5108962;27;41643;-62
2023/10/21 13:44:24;;;;;;;9.70;1.38;;;;;;;;;;5115459;27;40801;-62
2023/10/21 13:46:52;;;;;;;7.40;1.17;;;;;;;;;;5109589;27;41615;-67
2023/10/21 13:49:20;;;;;;;9.50;1.55;;;;;;;;;;5122190;27;42142;-65
2023/10/21 13:51:51;;;;;;;13.75;1.75;;;;;;;;;;5125650;27;41160;-65
2023/10/21 13:54:21;;;;;;;9.13;1.20;;;;;;;;;;5121161;27;42533;-65
2023/10/21 13:56:49;;;;;;;17.10;1.20;;;;;;;;;;5125698;27;41695;-65
2023/10/21 13:59:18;;;;;;;10.95;1.50;;;;;;;;;;5126694;27;39881;-65
2023/10/21 14:01:46;;;;;;;8.45;1.30;;;;;;;;;;5126956;27;42532;-65
2023/10/21 14:04:15;;;;;;;14.70;1.67;;;;;;;;;;5126152;27;41914;-65
2023/10/21 14:06:43;;;;;;;5.68;1.25;;;;;;;;;;5127637;27;41442;-65
2023/10/21 14:09:22;;;;;;;7.05;1.55;;;;;;;;;;5127757;27;41727;-65
2023/10/21 14:11:51;;;;;;;8.75;1.13;;;;;;;;;;5124459;27;39651;-65
2023/10/21 14:14:19;;;;;;;4.85;0.90;;;;;;;;;;5127538;27;42409;-65
2023/10/21 14:16:47;;;;;;;7.57;1.35;;;;;;;;;;5123219;27;41933;-65
2023/10/21 14:19:16;;;;;;;3.88;1.00;;;;;;;;;;5126382;27;40044;-66
2023/10/21 14:21:44;;;;;;;3.83;1.25;;;;;;;;;;5123308;27;42117;-65
2023/10/21 14:24:14;;;;;;;7.30;1.52;;;;;;;;;;5127730;27;42198;-65
2023/10/21 14:26:43;;;;;;;6.28;1.00;;;;;;;;;;5123624;27;40440;-65
2023/10/21 14:29:12;;;;;;;5.03;1.55;;;;;;;;;;5115446;27;42203;-65
2023/10/21 14:31:42;;;;;;;5.47;1.85;;;;;;;;;;5119751;27;40263;-65
2023/10/21 14:34:11;;;;;;;7.88;1.80;;;;;;;;;;5116122;27;41232;-65
2023/10/21 14:36:41;;;;;;;6.60;1.00;;;;;;;;;;5117923;27;41425;-67
2023/10/21 14:39:09;;;;;;;6.78;1.20;;;;;;;;;;5125633;27;39891;-63
2023/10/21 14:41:40;;;;;;;5.70;1.00;;;;;;;;;;5117389;27;42470;-61
2023/10/21 14:44:08;;;;;;;6.22;0.82;;;;;;;;;;5125314;27;41154;-61
2023/10/21 14:46:36;;;;;;;3.60;1.05;;;;;;;;;;5114487;27;39711;-61
2023/10/21 14:49:06;;;;;;;4.90;0.90;;;;;;;;;;5113651;27;42734;-62
2023/10/21 14:51:34;;;;;;;4.13;0.85;;;;;;;;;;5118459;27;40955;-63
2023/10/21 14:54:02;;;;;;;6.88;1.73;;;;;;;;;;5116438;27;41929;-62
2023/10/21 14:56:30;;;;;;;5.75;1.00;;;;;;;;;;5112266;27;42532;-62
2023/10/21 14:59:00;;;;;;;3.10;0.90;;;;;;;;;;5126948;27;41240;-62
2023/10/21 15:01:27;;;;;;;3.45;0.90;;;;;;;;;;5125043;27;42528;-62
2023/10/21 15:03:56;;;;;;;3.33;0.90;;;;;;;;;;5127825;27;41745;-62
2023/10/21 15:06:25;;;;;;;5.47;1.10;;;;;;;;;;5129662;27;40399;-62
2023/10/21 15:08:52;;;;;;;2.20;1.00;;;;;;;;;;5129731;27;41022;-63
2023/10/21 15:11:21;;;;;;;6.30;1.08;;;;;;;;;;5109849;27;40461;-64
2023/10/21 15:13:49;;;;;;;10.15;1.10;;;;;;;;;;5116072;27;41163;-64
2023/10/21 15:16:18;;;;;;;8.38;1.17;;;;;;;;;;5129974;27;42672;-64